Time;durP1;ratioP1;P1;durP2;ratioP2;P2;SDS_P1;SDS_P2;PMS_P1;PMS_P2;Temp;Humidity;BMP_temperature;BMP_pressure;BME280_temperature;BME280_humidity;BME280_pressure;Samples;Min_cycle;Max_cycle;Signal;HPM_P1;HPM_P2
2023/11/20 00:02:00;;;;;;;;;;;2.70;70.60;;;;;;5056486;28;20052;-71
2023/11/20 00:04:26;;;;;;;;;;;2.70;70.80;;;;;;5074604;28;19928;-75
2023/11/20 00:06:52;;;;;;;;;;;2.70;70.70;;;;;;5073649;28;20010;-71
2023/11/20 00:09:18;;;;;;;;;;;2.70;70.60;;;;;;5074245;28;19924;-75
2023/11/20 00:11:44;;;;;;;;;;;2.70;70.50;;;;;;5055773;28;20399;-76
2023/11/20 00:14:10;;;;;;;;;;;2.70;70.40;;;;;;5056422;28;19917;-72
2023/11/20 00:16:36;;;;;;;;;;;2.70;70.50;;;;;;5056487;28;19926;-74
2023/11/20 00:19:04;;;;;;;;;;;2.70;70.50;;;;;;5056424;28;20359;-76
2023/11/20 00:21:31;;;;;;;;;;;2.70;70.40;;;;;;5056023;28;20312;-71
2023/11/20 00:23:58;;;;;;;;;;;2.60;70.30;;;;;;5039671;28;20015;-71
2023/11/20 00:26:24;;;;;;;;;;;2.60;70.10;;;;;;5056628;28;19931;-72
2023/11/20 00:28:53;;;;;;;;;;;2.70;70.30;;;;;;5073991;28;20007;-71
2023/11/20 00:31:19;;;;;;;;;;;2.70;70.30;;;;;;5056219;28;20326;-71
2023/11/20 00:33:45;;;;;;;;;;;2.60;70.40;;;;;;5074064;28;19922;-72
2023/11/20 00:36:11;;;;;;;;;;;2.60;70.70;;;;;;5039458;28;20340;-76
2023/11/20 00:38:37;;;;;;;;;;;2.60;70.80;;;;;;5056155;28;19921;-72
2023/11/20 00:41:04;;;;;;;;;;;2.60;70.90;;;;;;5073577;28;19928;-76
2023/11/20 00:43:31;;;;;;;;;;;2.60;70.90;;;;;;5073620;28;19924;-76
2023/11/20 00:45:57;;;;;;;;;;;2.60;70.30;;;;;;5039531;28;19927;-75
2023/11/20 00:48:23;;;;;;;;;;;2.60;70.90;;;;;;5055843;28;20344;-71
2023/11/20 00:50:49;;;;;;;;;;;2.60;70.90;;;;;;5055387;28;20381;-71
2023/11/20 00:53:15;;;;;;;;;;;2.60;70.90;;;;;;5055518;28;19916;-76
2023/11/20 00:55:41;;;;;;;;;;;2.60;71.00;;;;;;5054061;28;19920;-71
2023/11/20 00:58:07;;;;;;;;;;;2.50;71.40;;;;;;5093551;28;19921;-72
2023/11/20 01:00:33;;;;;;;;;;;2.60;71.00;;;;;;5075102;28;19924;-76
2023/11/20 01:02:59;;;;;;;;;;;2.60;70.90;;;;;;5075280;28;20014;-75
2023/11/20 01:05:25;;;;;;;;;;;2.60;71.00;;;;;;5093922;28;20353;-71
2023/11/20 01:07:51;;;;;;;;;;;2.60;71.00;;;;;;5075175;28;19922;-71
2023/11/20 01:10:17;;;;;;;;;;;2.50;71.00;;;;;;5075057;28;19930;-71
2023/11/20 01:12:43;;;;;;;;;;;2.50;71.10;;;;;;5093413;28;19920;-71
2023/11/20 01:15:09;;;;;;;;;;;2.60;71.10;;;;;;5093749;28;19960;-71
2023/11/20 01:17:35;;;;;;;;;;;2.50;71.00;;;;;;5075225;28;19916;-71
2023/11/20 01:20:02;;;;;;;;;;;2.60;71.00;;;;;;5075210;28;20407;-73
2023/11/20 01:22:28;;;;;;;;;;;2.60;70.90;;;;;;5058378;28;19924;-76
2023/11/20 01:24:54;;;;;;;;;;;2.50;70.60;;;;;;5093495;28;19924;-75
2023/11/20 01:27:19;;;;;;;;;;;2.50;70.50;;;;;;5075160;28;20011;-75
2023/11/20 01:29:45;;;;;;;;;;;2.50;70.50;;;;;;5075115;28;20285;-71
2023/11/20 01:32:11;;;;;;;;;;;2.50;70.20;;;;;;5058071;28;19923;-76
2023/11/20 01:34:37;;;;;;;;;;;2.40;70.20;;;;;;5075211;28;19920;-72
2023/11/20 01:37:03;;;;;;;;;;;2.40;70.50;;;;;;5093232;28;20018;-71
2023/11/20 01:39:31;;;;;;;;;;;2.40;70.90;;;;;;5093054;28;19969;-76
2023/11/20 01:41:57;;;;;;;;;;;2.40;70.80;;;;;;5074758;28;19924;-72
2023/11/20 01:44:22;;;;;;;;;;;2.40;70.10;;;;;;5075045;28;19920;-75
2023/11/20 01:46:49;;;;;;;;;;;2.40;70.70;;;;;;5093085;28;20011;-71
2023/11/20 01:49:15;;;;;;;;;;;2.40;70.50;;;;;;5058402;28;19924;-75
2023/11/20 01:51:41;;;;;;;;;;;2.50;70.70;;;;;;5074283;28;19924;-75
2023/11/20 01:54:08;;;;;;;;;;;2.50;70.70;;;;;;5074806;28;20365;-76
2023/11/20 01:56:34;;;;;;;;;;;2.50;70.80;;;;;;5075096;28;19920;-72
2023/11/20 01:59:04;;;;;;;;;;;2.50;70.70;;;;;;5074877;28;20270;-75
2023/11/20 02:01:32;;;;;;;;;;;2.50;70.70;;;;;;5074214;28;19924;-75
2023/11/20 02:04:17;;;;;;;;;;;2.50;70.80;;;;;;5058303;28;20388;-76
2023/11/20 02:06:43;;;;;;;;;;;2.50;70.90;;;;;;5074910;28;20323;-75
2023/11/20 02:09:09;;;;;;;;;;;2.50;70.40;;;;;;5074745;28;19920;-71
2023/11/20 02:11:35;;;;;;;;;;;2.50;71.10;;;;;;5074113;28;19924;-72
2023/11/20 02:14:01;;;;;;;;;;;2.50;71.10;;;;;;5092858;28;19963;-75
2023/11/20 02:16:27;;;;;;;;;;;2.50;71.20;;;;;;5074859;28;19920;-71
2023/11/20 02:18:53;;;;;;;;;;;2.50;71.20;;;;;;5057807;28;20123;-76
2023/11/20 02:21:19;;;;;;;;;;;2.40;71.40;;;;;;5092591;28;20462;-76
2023/11/20 02:23:45;;;;;;;;;;;2.50;71.50;;;;;;5092434;28;20340;-75
2023/11/20 02:26:48;;;;;;;;;;;2.50;71.40;;;;;;5093305;28;20011;-71
2023/11/20 02:29:32;;;;;;;;;;;2.50;71.10;;;;;;5092714;28;19924;-71
2023/11/20 02:31:58;;;;;;;;;;;2.50;71.30;;;;;;5095632;28;19948;-71
2023/11/20 02:34:24;;;;;;;;;;;2.50;70.90;;;;;;5061578;28;20372;-71
2023/11/20 02:36:50;;;;;;;;;;;2.40;71.10;;;;;;5078422;28;19950;-74
2023/11/20 02:39:17;;;;;;;;;;;2.40;71.20;;;;;;5078294;28;19924;-75
2023/11/20 02:41:43;;;;;;;;;;;2.40;71.20;;;;;;5060679;28;20427;-76
2023/11/20 02:44:09;;;;;;;;;;;2.40;71.40;;;;;;5096369;28;19916;-76
2023/11/20 02:46:35;;;;;;;;;;;2.40;71.60;;;;;;5096297;28;19927;-71
2023/11/20 02:49:01;;;;;;;;;;;2.40;71.70;;;;;;5096198;28;19994;-71
2023/11/20 02:51:30;;;;;;;;;;;2.40;71.60;;;;;;5095754;28;19928;-75
2023/11/20 02:53:56;;;;;;;;;;;2.40;71.60;;;;;;5078125;28;19966;-75
2023/11/20 02:56:24;;;;;;;;;;;2.30;71.90;;;;;;5078298;28;19924;-75
2023/11/20 02:58:51;;;;;;;;;;;2.30;71.90;;;;;;5096009;28;19920;-71
2023/11/20 03:01:16;;;;;;;;;;;2.30;71.70;;;;;;5077405;28;19924;-71
2023/11/20 03:03:42;;;;;;;;;;;2.30;71.90;;;;;;5095914;28;20018;-76
2023/11/20 03:06:08;;;;;;;;;;;2.30;71.80;;;;;;5095873;28;20003;-71
2023/11/20 03:08:34;;;;;;;;;;;2.30;71.70;;;;;;5060819;28;19921;-71
2023/11/20 03:11:00;;;;;;;;;;;2.30;71.50;;;;;;5077220;28;20324;-75
2023/11/20 03:13:26;;;;;;;;;;;2.20;71.90;;;;;;5077618;28;20280;-71
2023/11/20 03:15:52;;;;;;;;;;;2.20;71.90;;;;;;5096045;28;19928;-71
2023/11/20 03:18:18;;;;;;;;;;;2.10;71.70;;;;;;5095748;28;19916;-76
2023/11/20 03:20:44;;;;;;;;;;;2.10;71.80;;;;;;5077274;28;19924;-76
2023/11/20 03:23:13;;;;;;;;;;;2.10;71.80;;;;;;5095394;28;19970;-71
2023/11/20 03:25:40;;;;;;;;;;;2.10;71.80;;;;;;5095852;28;20380;-71
2023/11/20 03:28:06;;;;;;;;;;;2.00;71.50;;;;;;5077217;28;19960;-71
2023/11/20 03:30:35;;;;;;;;;;;2.00;71.50;;;;;;5076909;28;19924;-75
2023/11/20 03:33:00;;;;;;;;;;;2.00;71.60;;;;;;5077341;28;20308;-75
2023/11/20 03:35:26;;;;;;;;;;;2.10;71.70;;;;;;5095257;28;19924;-71
2023/11/20 03:37:52;;;;;;;;;;;2.10;71.60;;;;;;5077598;28;20346;-71
2023/11/20 03:40:18;;;;;;;;;;;2.00;71.50;;;;;;5076636;28;19931;-71
2023/11/20 03:42:44;;;;;;;;;;;2.00;71.50;;;;;;5076706;28;19920;-75
2023/11/20 03:45:10;;;;;;;;;;;2.00;71.50;;;;;;5077172;28;19924;-75
2023/11/20 03:47:36;;;;;;;;;;;2.00;71.50;;;;;;5077030;28;19920;-71
2023/11/20 03:50:03;;;;;;;;;;;2.10;71.60;;;;;;5077072;28;19930;-71
2023/11/20 03:52:29;;;;;;;;;;;2.10;71.60;;;;;;5076609;28;19920;-72
2023/11/20 03:54:55;;;;;;;;;;;2.10;71.70;;;;;;5076900;28;19931;-75
2023/11/20 03:57:21;;;;;;;;;;;2.10;71.70;;;;;;5094914;28;19970;-75
2023/11/20 03:59:47;;;;;;;;;;;2.00;71.60;;;;;;5095096;28;19969;-75
2023/11/20 04:02:16;;;;;;;;;;;2.00;72.10;;;;;;5076197;28;20316;-75
2023/11/20 04:04:43;;;;;;;;;;;2.00;71.90;;;;;;5094998;28;19920;-71
2023/11/20 04:07:09;;;;;;;;;;;2.00;71.80;;;;;;5076697;28;19927;-72
2023/11/20 04:09:35;;;;;;;;;;;2.00;71.80;;;;;;5076816;28;20346;-75
2023/11/20 04:12:01;;;;;;;;;;;2.00;71.80;;;;;;5059065;28;19924;-75
2023/11/20 04:14:28;;;;;;;;;;;2.00;71.80;;;;;;5094914;28;19921;-75
2023/11/20 04:16:54;;;;;;;;;;;2.00;72.00;;;;;;5094554;28;19954;-71
2023/11/20 04:19:20;;;;;;;;;;;2.00;71.90;;;;;;5094343;28;19916;-75
2023/11/20 04:21:46;;;;;;;;;;;1.90;72.00;;;;;;5093873;28;19986;-71
2023/11/20 04:24:12;;;;;;;;;;;1.90;71.90;;;;;;5094591;28;19923;-71
2023/11/20 04:26:40;;;;;;;;;;;2.00;71.90;;;;;;5076210;28;19986;-75
2023/11/20 04:29:06;;;;;;;;;;;2.00;71.70;;;;;;5059321;28;19923;-75
2023/11/20 04:31:32;;;;;;;;;;;2.00;71.80;;;;;;5075869;28;20174;-75
2023/11/20 04:33:58;;;;;;;;;;;2.10;71.70;;;;;;5094347;28;20047;-71
2023/11/20 04:36:24;;;;;;;;;;;2.10;71.70;;;;;;5059706;28;20015;-71
2023/11/20 04:38:50;;;;;;;;;;;2.00;71.80;;;;;;5094018;28;20316;-75
2023/11/20 04:41:15;;;;;;;;;;;2.10;71.80;;;;;;5075105;28;20440;-71
2023/11/20 04:43:41;;;;;;;;;;;2.10;71.70;;;;;;5075897;28;20025;-71
2023/11/20 04:46:12;;;;;;;;;;;2.10;71.80;;;;;;5076262;28;20365;-71
2023/11/20 04:48:38;;;;;;;;;;;2.10;71.70;;;;;;5093991;28;19923;-75
2023/11/20 04:51:04;;;;;;;;;;;2.10;72.00;;;;;;5093811;28;20288;-71
2023/11/20 04:53:30;;;;;;;;;;;2.10;72.00;;;;;;5093085;28;19942;-75
2023/11/20 04:55:56;;;;;;;;;;;2.10;72.30;;;;;;5075862;28;20318;-71
2023/11/20 04:58:22;;;;;;;;;;;2.10;72.50;;;;;;5093632;28;19916;-74
2023/11/20 05:00:49;;;;;;;;;;;2.20;72.40;;;;;;5075180;28;19931;-75
2023/11/20 05:06:01;;;;;;;;;;;2.20;72.00;;;;;;5093971;28;19920;-75
2023/11/20 05:08:27;;;;;;;;;;;2.20;71.90;;;;;;5093615;28;19974;-71
2023/11/20 05:10:53;;;;;;;;;;;2.20;71.70;;;;;;5093087;28;19924;-71
2023/11/20 05:13:19;;;;;;;;;;;2.20;71.40;;;;;;5075173;28;19991;-75
2023/11/20 05:15:48;;;;;;;;;;;2.20;71.50;;;;;;5093394;28;19946;-71
2023/11/20 05:18:15;;;;;;;;;;;2.10;71.50;;;;;;5076261;28;20304;-71
2023/11/20 05:20:41;;;;;;;;;;;2.10;71.50;;;;;;5074819;28;19982;-71
2023/11/20 05:23:08;;;;;;;;;;;2.10;71.60;;;;;;5093177;28;19999;-75
2023/11/20 05:25:35;;;;;;;;;;;2.10;71.40;;;;;;5093730;28;20333;-75
2023/11/20 05:28:01;;;;;;;;;;;2.10;71.00;;;;;;5093103;28;19927;-75
2023/11/20 05:30:27;;;;;;;;;;;2.00;71.50;;;;;;5074619;28;19978;-71
2023/11/20 05:32:53;;;;;;;;;;;2.10;71.90;;;;;;5075659;28;19919;-75
2023/11/20 05:35:19;;;;;;;;;;;2.00;71.90;;;;;;5075401;28;20011;-75
2023/11/20 05:37:46;;;;;;;;;;;2.00;71.80;;;;;;5093511;28;19974;-71
2023/11/20 05:40:13;;;;;;;;;;;2.00;71.70;;;;;;5074544;28;19931;-75
2023/11/20 05:42:40;;;;;;;;;;;2.00;71.10;;;;;;5092820;28;20274;-72
2023/11/20 05:45:07;;;;;;;;;;;2.00;71.80;;;;;;5075341;28;19924;-71
2023/11/20 05:47:33;;;;;;;;;;;2.00;71.60;;;;;;5074867;28;19923;-74
2023/11/20 05:49:59;;;;;;;;;;;2.00;71.90;;;;;;5093538;28;19924;-71
2023/11/20 05:52:25;;;;;;;;;;;2.00;72.00;;;;;;5074221;28;20373;-75
2023/11/20 05:54:51;;;;;;;;;;;2.00;71.80;;;;;;5092996;28;19924;-75
2023/11/20 05:57:17;;;;;;;;;;;2.00;71.90;;;;;;5074745;28;20049;-71
2023/11/20 06:00:03;;;;;;;;;;;2.00;72.00;;;;;;5058368;28;20079;-71
2023/11/20 06:02:28;;;;;;;;;;;2.10;71.90;;;;;;5092667;28;20296;-72
2023/11/20 06:04:54;;;;;;;;;;;2.10;71.70;;;;;;5075002;28;19934;-75
2023/11/20 06:07:20;;;;;;;;;;;2.10;71.80;;;;;;5096727;28;19916;-71
2023/11/20 06:09:46;;;;;;;;;;;2.10;71.70;;;;;;5078844;28;19924;-72
2023/11/20 06:12:12;;;;;;;;;;;2.10;71.70;;;;;;5096282;28;20415;-75
2023/11/20 06:14:38;;;;;;;;;;;2.10;71.40;;;;;;5097470;28;19931;-75
2023/11/20 06:17:04;;;;;;;;;;;2.10;71.40;;;;;;5078824;28;20432;-71
2023/11/20 06:19:30;;;;;;;;;;;2.10;71.40;;;;;;5078618;28;19924;-71
2023/11/20 06:21:55;;;;;;;;;;;2.10;71.40;;;;;;5061160;28;20023;-75
2023/11/20 06:24:21;;;;;;;;;;;2.10;71.50;;;;;;5096744;28;20023;-72
2023/11/20 06:26:47;;;;;;;;;;;2.10;71.30;;;;;;5078615;28;19961;-74
2023/11/20 06:29:13;;;;;;;;;;;2.20;71.30;;;;;;5078352;28;20014;-75
2023/11/20 06:31:39;;;;;;;;;;;2.20;71.00;;;;;;5095932;28;19921;-71
2023/11/20 06:34:05;;;;;;;;;;;2.30;71.20;;;;;;5061812;28;19916;-71
2023/11/20 06:36:31;;;;;;;;;;;2.30;71.20;;;;;;5078465;28;19920;-71
2023/11/20 06:41:42;;;;;;;;;;;2.40;70.80;;;;;;5080383;28;19962;-75
2023/11/20 06:44:08;;;;;;;;;;;2.40;70.80;;;;;;5096222;28;19922;-75
2023/11/20 06:46:34;;;;;;;;;;;2.50;70.30;;;;;;5096926;28;20275;-75
2023/11/20 06:49:00;;;;;;;;;;;2.50;70.60;;;;;;5096229;28;20420;-71
2023/11/20 06:51:26;;;;;;;;;;;2.60;70.70;;;;;;5060804;28;19928;-76
2023/11/20 06:53:52;;;;;;;;;;;2.70;70.80;;;;;;5077910;28;19923;-71
2023/11/20 06:56:38;;;;;;;;;;;2.70;70.80;;;;;;5096546;28;20011;-76
2023/11/20 06:59:04;;;;;;;;;;;2.80;70.50;;;;;;5077954;28;20236;-75
2023/11/20 07:01:30;;;;;;;;;;;2.80;70.50;;;;;;5077389;28;19920;-75
2023/11/20 07:03:58;;;;;;;;;;;2.90;70.50;;;;;;5060978;28;19939;-71
2023/11/20 07:06:25;;;;;;;;;;;2.90;69.70;;;;;;5061415;28;20381;-75
2023/11/20 07:08:54;;;;;;;;;;;3.00;70.20;;;;;;5095777;28;19923;-75
2023/11/20 07:11:20;;;;;;;;;;;3.10;70.20;;;;;;5077500;28;19924;-75
2023/11/20 07:13:46;;;;;;;;;;;3.10;69.40;;;;;;5077468;28;19916;-76
2023/11/20 07:16:13;;;;;;;;;;;3.20;70.00;;;;;;5077183;28;20349;-75
2023/11/20 07:18:38;;;;;;;;;;;3.30;70.00;;;;;;5095708;28;19920;-72
2023/11/20 07:21:06;;;;;;;;;;;3.30;69.90;;;;;;5076879;28;19924;-72
2023/11/20 07:23:32;;;;;;;;;;;3.40;69.60;;;;;;5095491;28;20006;-72
2023/11/20 07:25:58;;;;;;;;;;;3.50;69.60;;;;;;5096040;28;19927;-76
2023/11/20 07:28:24;;;;;;;;;;;3.50;69.50;;;;;;5095427;28;20461;-75
2023/11/20 07:30:50;;;;;;;;;;;3.60;69.40;;;;;;5094977;28;20002;-72
2023/11/20 07:33:16;;;;;;;;;;;3.60;69.40;;;;;;5095382;28;20011;-75
2023/11/20 07:35:41;;;;;;;;;;;3.70;69.60;;;;;;5077486;28;19916;-71
2023/11/20 07:38:08;;;;;;;;;;;3.80;69.60;;;;;;5095399;28;20001;-71
2023/11/20 07:40:34;;;;;;;;;;;3.90;69.70;;;;;;5094920;28;19963;-71
2023/11/20 07:43:00;;;;;;;;;;;4.00;69.60;;;;;;5094847;28;20316;-75
2023/11/20 07:45:26;;;;;;;;;;;4.10;69.50;;;;;;5095338;28;19963;-71
2023/11/20 07:47:52;;;;;;;;;;;4.10;69.50;;;;;;5077258;28;20011;-75
2023/11/20 07:50:18;;;;;;;;;;;4.20;69.60;;;;;;5076397;28;20395;-71
2023/11/20 07:52:44;;;;;;;;;;;4.30;69.60;;;;;;5094995;28;20396;-71
2023/11/20 07:55:11;;;;;;;;;;;4.30;69.60;;;;;;5076844;28;20023;-76
2023/11/20 07:57:37;;;;;;;;;;;4.40;68.70;;;;;;5077328;28;20331;-74
2023/11/20 08:00:04;;;;;;;;;;;4.50;69.10;;;;;;5076085;28;20034;-72
2023/11/20 08:02:30;;;;;;;;;;;4.60;68.30;;;;;;5076605;28;19947;-71
2023/11/20 08:04:56;;;;;;;;;;;4.70;69.20;;;;;;5076939;28;19930;-76
2023/11/20 08:07:22;;;;;;;;;;;4.80;69.20;;;;;;5076473;28;20535;-76
2023/11/20 08:09:48;;;;;;;;;;;4.80;70.00;;;;;;5076713;28;19924;-76
2023/11/20 08:12:13;;;;;;;;;;;4.90;69.40;;;;;;5093897;28;20436;-76
2023/11/20 08:14:39;;;;;;;;;;;5.00;69.20;;;;;;5094831;28;19924;-71
2023/11/20 08:17:05;;;;;;;;;;;5.10;69.20;;;;;;5076664;28;19947;-70
2023/11/20 08:19:31;;;;;;;;;;;5.20;69.00;;;;;;5076661;28;19924;-76
2023/11/20 08:21:57;;;;;;;;;;;5.40;68.90;;;;;;5075867;28;19920;-76
2023/11/20 08:24:23;;;;;;;;;;;5.40;68.80;;;;;;5076450;28;19924;-71
2023/11/20 08:26:49;;;;;;;;;;;5.50;68.90;;;;;;5094392;28;19930;-75
2023/11/20 08:29:21;;;;;;;;;;;5.60;68.90;;;;;;5075267;28;20322;-71
2023/11/20 08:31:47;;;;;;;;;;;5.70;68.10;;;;;;5059869;28;20384;-76
2023/11/20 08:34:13;;;;;;;;;;;5.80;68.50;;;;;;5094430;28;19935;-71
2023/11/20 08:36:40;;;;;;;;;;;5.90;67.90;;;;;;5094268;28;19923;-75
2023/11/20 08:39:11;;;;;;;;;;;6.00;68.20;;;;;;5076069;28;19959;-71
2023/11/20 08:41:55;;;;;;;;;;;6.10;68.60;;;;;;5075229;28;20448;-71
2023/11/20 08:44:21;;;;;;;;;;;6.20;68.20;;;;;;5076001;28;19955;-71
2023/11/20 08:46:47;;;;;;;;;;;6.20;68.30;;;;;;5076055;28;20014;-71
2023/11/20 08:49:14;;;;;;;;;;;6.30;68.40;;;;;;5075818;28;20130;-71
2023/11/20 08:51:40;;;;;;;;;;;6.40;68.30;;;;;;5093720;28;19946;-76
2023/11/20 08:54:06;;;;;;;;;;;6.50;68.50;;;;;;5093530;28;19936;-76
2023/11/20 08:56:32;;;;;;;;;;;6.50;69.00;;;;;;5075888;28;20388;-71
2023/11/20 08:58:57;;;;;;;;;;;6.60;68.70;;;;;;5075661;28;19922;-76
2023/11/20 09:01:42;;;;;;;;;;;6.70;68.80;;;;;;5058339;28;20027;-75
2023/11/20 09:04:10;;;;;;;;;;;6.70;68.50;;;;;;5093589;28;19939;-75
2023/11/20 09:06:36;;;;;;;;;;;6.80;68.70;;;;;;5075311;28;19958;-71
2023/11/20 09:09:04;;;;;;;;;;;6.90;68.50;;;;;;5058970;28;19944;-71
2023/11/20 09:11:31;;;;;;;;;;;7.00;68.20;;;;;;5092966;28;19924;-71
2023/11/20 09:13:57;;;;;;;;;;;7.20;68.00;;;;;;5093628;28;19916;-76
2023/11/20 09:16:24;;;;;;;;;;;7.20;67.40;;;;;;5075756;28;19920;-71
2023/11/20 09:18:50;;;;;;;;;;;7.30;67.30;;;;;;5075232;28;20014;-71
2023/11/20 09:21:17;;;;;;;;;;;7.50;67.30;;;;;;5074925;28;19931;-76
2023/11/20 09:24:01;;;;;;;;;;;7.60;66.80;;;;;;5075508;28;20403;-75
2023/11/20 09:26:27;;;;;;;;;;;7.80;66.70;;;;;;5058485;28;19925;-76
2023/11/20 09:28:53;;;;;;;;;;;7.90;66.60;;;;;;5093261;28;19976;-73
2023/11/20 09:31:19;;;;;;;;;;;7.90;66.40;;;;;;5074693;28;19932;-76
2023/11/20 09:33:47;;;;;;;;;;;8.00;65.80;;;;;;5075345;28;20378;-76
2023/11/20 09:36:12;;;;;;;;;;;8.00;66.10;;;;;;5075552;28;20388;-71
2023/11/20 09:38:39;;;;;;;;;;;8.20;66.20;;;;;;5093020;28;19920;-72
2023/11/20 09:41:05;;;;;;;;;;;8.20;65.40;;;;;;5074407;28;20396;-72
2023/11/20 09:43:31;;;;;;;;;;;8.40;65.70;;;;;;5092991;28;19920;-71
2023/11/20 09:45:59;;;;;;;;;;;8.40;65.20;;;;;;5075328;28;19920;-76
2023/11/20 09:48:29;;;;;;;;;;;8.50;65.20;;;;;;5075043;28;19924;-75
2023/11/20 09:50:55;;;;;;;;;;;8.60;65.20;;;;;;5092453;28;19931;-72
2023/11/20 09:53:22;;;;;;;;;;;8.50;65.30;;;;;;5058066;28;19920;-75
2023/11/20 09:55:48;;;;;;;;;;;8.60;65.30;;;;;;5075243;28;19973;-72
2023/11/20 09:58:14;;;;;;;;;;;8.70;65.30;;;;;;5074948;28;20573;-72
2023/11/20 10:00:40;;;;;;;;;;;8.80;65.00;;;;;;5057410;28;19924;-76
2023/11/20 10:03:07;;;;;;;;;;;8.70;65.30;;;;;;5074759;28;19922;-75
2023/11/20 10:05:38;;;;;;;;;;;8.70;65.20;;;;;;5075045;28;19920;-76
2023/11/20 10:08:07;;;;;;;;;;;8.80;65.00;;;;;;5057817;28;19924;-72
2023/11/20 10:10:34;;;;;;;;;;;8.80;64.90;;;;;;5057699;28;19925;-76
2023/11/20 10:13:00;;;;;;;;;;;8.90;64.20;;;;;;5075090;28;19916;-72
2023/11/20 10:15:27;;;;;;;;;;;9.00;64.10;;;;;;5074747;28;20348;-76
2023/11/20 10:17:54;;;;;;;;;;;9.10;64.60;;;;;;5074791;28;19949;-75
2023/11/20 10:20:20;;;;;;;;;;;9.10;64.60;;;;;;5073990;28;19924;-72
2023/11/20 10:22:47;;;;;;;;;;;9.20;64.50;;;;;;5092575;28;20011;-71
2023/11/20 10:25:13;;;;;;;;;;;9.20;64.60;;;;;;5093130;28;19928;-71
2023/11/20 10:27:39;;;;;;;;;;;9.30;64.10;;;;;;5074752;28;19993;-76
2023/11/20 10:30:09;;;;;;;;;;;9.30;64.80;;;;;;5092256;28;19950;-72
2023/11/20 10:32:39;;;;;;;;;;;9.40;64.60;;;;;;5075006;28;19920;-76
2023/11/20 10:35:24;;;;;;;;;;;9.50;64.40;;;;;;5074701;28;20015;-76
2023/11/20 10:38:10;;;;;;;;;;;9.60;64.00;;;;;;5074886;28;19965;-72
2023/11/20 10:40:58;;;;;;;;;;;9.60;63.90;;;;;;5073683;28;19932;-71
2023/11/20 10:43:26;;;;;;;;;;;9.70;63.90;;;;;;5074564;28;19926;-71
2023/11/20 10:45:52;;;;;;;;;;;9.80;63.60;;;;;;5074817;28;20384;-76
2023/11/20 10:48:18;;;;;;;;;;;9.90;63.70;;;;;;5092506;28;19931;-71
2023/11/20 10:50:49;;;;;;;;;;;9.90;63.60;;;;;;5056767;28;20018;-76
2023/11/20 10:53:17;;;;;;;;;;;9.90;63.40;;;;;;5077921;28;19916;-75
2023/11/20 10:55:50;;;;;;;;;;;10.00;63.10;;;;;;5078249;28;19935;-76
2023/11/20 10:58:16;;;;;;;;;;;10.00;63.10;;;;;;5096361;28;20296;-72
2023/11/20 11:00:42;;;;;;;;;;;10.10;63.10;;;;;;5077382;28;19924;-76
2023/11/20 11:03:09;;;;;;;;;;;10.20;62.40;;;;;;5077853;28;19916;-73
2023/11/20 11:05:38;;;;;;;;;;;10.20;62.80;;;;;;5077787;28;19960;-71
2023/11/20 11:08:08;;;;;;;;;;;10.30;62.90;;;;;;5095947;28;20007;-72
2023/11/20 11:10:55;;;;;;;;;;;10.30;62.70;;;;;;5060671;28;20377;-71
2023/11/20 11:13:23;;;;;;;;;;;10.40;62.50;;;;;;5077566;28;19928;-72
2023/11/20 11:15:52;;;;;;;;;;;10.40;62.50;;;;;;5078155;28;19932;-71
2023/11/20 11:18:23;;;;;;;;;;;10.50;62.40;;;;;;5077871;28;20333;-73
2023/11/20 11:21:03;;;;;;;;;;;10.50;62.40;;;;;;5095085;28;19924;-72
2023/11/20 11:23:32;;;;;;;;;;;10.50;62.50;;;;;;5060888;28;19916;-73
2023/11/20 11:26:17;;;;;;;;;;;10.40;62.50;;;;;;5096151;28;19927;-76
2023/11/20 11:28:48;;;;;;;;;;;10.40;62.60;;;;;;5095566;28;20020;-72
2023/11/20 11:31:15;;;;;;;;;;;10.40;62.80;;;;;;5076958;28;20011;-76
2023/11/20 11:33:59;;;;;;;;;;;10.30;62.70;;;;;;5077525;28;19916;-75
2023/11/20 11:36:41;;;;;;;;;;;10.30;62.90;;;;;;5095154;28;19924;-72
2023/11/20 11:39:14;;;;;;;;;;;10.20;62.90;;;;;;5077539;28;19916;-69
2023/11/20 11:41:59;;;;;;;;;;;10.10;62.90;;;;;;5060014;28;19966;-72
2023/11/20 11:45:04;;;;;;;;;;;10.10;63.10;;;;;;5076739;28;20005;-76
2023/11/20 11:47:34;;;;;;;;;;;10.10;62.90;;;;;;5077015;28;19961;-71
2023/11/20 11:50:00;;;;;;;;;;;10.10;63.20;;;;;;5077177;28;19935;-76
2023/11/20 11:52:27;;;;;;;;;;;10.10;63.20;;;;;;5076750;28;19920;-76
2023/11/20 11:58:17;;;;;;;;;;;10.20;63.40;;;;;;5095276;28;19927;-75
2023/11/20 12:01:22;;;;;;;;;;;10.20;63.50;;;;;;5094443;28;19928;-72
2023/11/20 12:03:48;;;;;;;;;;;10.20;63.40;;;;;;5076486;28;19924;-72
2023/11/20 12:06:14;;;;;;;;;;;10.40;63.40;;;;;;5095373;28;19932;-76
2023/11/20 12:08:40;;;;;;;;;;;10.40;63.30;;;;;;5076723;28;19920;-76
2023/11/20 12:11:07;;;;;;;;;;;10.40;63.40;;;;;;5076077;28;19924;-72
2023/11/20 12:13:33;;;;;;;;;;;10.50;63.00;;;;;;5059983;28;19939;-75
2023/11/20 12:16:19;;;;;;;;;;;10.50;63.50;;;;;;5076874;28;20396;-76
2023/11/20 12:18:45;;;;;;;;;;;10.60;63.20;;;;;;5059913;28;19951;-71
2023/11/20 12:21:13;;;;;;;;;;;10.60;63.30;;;;;;5093875;28;19924;-72
2023/11/20 12:23:42;;;;;;;;;;;10.60;63.50;;;;;;5076559;28;19916;-75
2023/11/20 12:26:10;;;;;;;;;;;10.60;63.70;;;;;;5095012;28;19927;-76
2023/11/20 12:28:54;;;;;;;;;;;10.60;64.00;;;;;;5076362;28;20377;-76
2023/11/20 12:31:20;;;;;;;;;;;10.70;64.00;;;;;;5075876;28;20081;-75
2023/11/20 12:33:47;;;;;;;;;;;10.80;63.50;;;;;;5094247;28;20261;-76
2023/11/20 12:36:14;;;;;;;;;;;10.80;64.10;;;;;;5076546;28;19924;-76
2023/11/20 12:38:43;;;;;;;;;;;10.90;63.80;;;;;;5076042;28;19916;-72
2023/11/20 12:41:10;;;;;;;;;;;10.80;63.30;;;;;;5059172;28;19931;-71
2023/11/20 12:43:37;;;;;;;;;;;10.90;63.30;;;;;;5075942;28;19917;-71
2023/11/20 12:46:06;;;;;;;;;;;11.00;63.10;;;;;;5076392;28;20010;-76
2023/11/20 12:48:35;;;;;;;;;;;11.20;62.80;;;;;;5076400;28;20360;-72
2023/11/20 12:51:02;;;;;;;;;;;11.20;62.60;;;;;;5075631;28;19924;-72
2023/11/20 12:53:28;;;;;;;;;;;11.20;62.40;;;;;;5075931;28;19916;-77
2023/11/20 12:55:55;;;;;;;;;;;11.20;62.50;;;;;;5075862;28;19935;-72
2023/11/20 12:58:22;;;;;;;;;;;11.30;62.40;;;;;;5075577;28;20356;-72
2023/11/20 13:00:48;;;;;;;;;;;11.30;62.10;;;;;;5075282;28;19931;-76
2023/11/20 13:03:18;;;;;;;;;;;11.40;61.60;;;;;;5093281;28;20458;-71
2023/11/20 13:05:46;;;;;;;;;;;11.50;61.50;;;;;;5075567;28;19928;-76
2023/11/20 13:08:15;;;;;;;;;;;11.40;61.40;;;;;;5093780;28;19920;-72
2023/11/20 13:10:41;;;;;;;;;;;11.50;61.40;;;;;;5075091;28;20330;-76
2023/11/20 13:13:08;;;;;;;;;;;11.50;61.30;;;;;;5075353;28;19920;-76
2023/11/20 13:15:34;;;;;;;;;;;11.60;61.00;;;;;;5075189;28;19963;-75
2023/11/20 13:18:05;;;;;;;;;;;11.60;60.90;;;;;;5093532;28;19995;-72
2023/11/20 13:20:52;;;;;;;;;;;11.50;61.00;;;;;;5075619;28;20019;-72
2023/11/20 13:23:36;;;;;;;;;;;11.50;61.20;;;;;;5093188;28;19938;-72
2023/11/20 13:26:02;;;;;;;;;;;11.50;61.40;;;;;;5075532;28;19927;-75
2023/11/20 13:28:32;;;;;;;;;;;11.50;61.70;;;;;;5093322;28;20330;-73
2023/11/20 13:31:16;;;;;;;;;;;11.50;61.60;;;;;;5092943;28;19959;-71
2023/11/20 13:33:43;;;;;;;;;;;11.40;61.70;;;;;;5075363;28;20440;-76
2023/11/20 13:36:10;;;;;;;;;;;11.40;62.10;;;;;;5075176;28;19927;-75
2023/11/20 13:38:36;;;;;;;;;;;11.40;62.20;;;;;;5075268;28;19924;-72
2023/11/20 13:41:03;;;;;;;;;;;11.30;62.60;;;;;;5074745;28;20373;-75
2023/11/20 13:43:29;;;;;;;;;;;11.30;62.30;;;;;;5074864;28;19920;-76
2023/11/20 13:45:56;;;;;;;;;;;11.20;62.90;;;;;;5093558;28;20262;-75
2023/11/20 13:48:41;;;;;;;;;;;11.20;63.60;;;;;;5075140;28;19924;-71
2023/11/20 13:51:07;;;;;;;;;;;11.10;63.90;;;;;;5074561;28;19931;-71
2023/11/20 13:53:33;;;;;;;;;;;11.20;64.10;;;;;;5058073;28;19916;-76
2023/11/20 13:55:59;;;;;;;;;;;11.10;64.50;;;;;;5093503;28;19931;-75
2023/11/20 13:58:26;;;;;;;;;;;11.10;64.50;;;;;;5074677;28;20422;-76
2023/11/20 14:00:55;;;;;;;;;;;11.00;63.90;;;;;;5057707;28;20332;-72
2023/11/20 14:03:22;;;;;;;;;;;11.10;64.10;;;;;;5075019;28;19924;-76
2023/11/20 14:05:48;;;;;;;;;;;11.00;63.40;;;;;;5074840;28;19938;-72
2023/11/20 14:08:15;;;;;;;;;;;11.00;64.20;;;;;;5058014;28;19928;-71
2023/11/20 14:10:44;;;;;;;;;;;11.00;64.20;;;;;;5074126;28;19932;-75
2023/11/20 14:13:11;;;;;;;;;;;10.90;64.40;;;;;;5092663;28;19916;-76
2023/11/20 14:15:37;;;;;;;;;;;10.90;64.20;;;;;;5074823;28;19960;-75
2023/11/20 14:18:04;;;;;;;;;;;10.90;65.00;;;;;;5074956;28;19924;-75
2023/11/20 14:20:30;;;;;;;;;;;10.90;64.80;;;;;;5074071;28;20456;-72
2023/11/20 14:22:56;;;;;;;;;;;10.90;65.40;;;;;;5074596;28;19916;-76
2023/11/20 14:25:23;;;;;;;;;;;10.90;65.80;;;;;;5074611;28;20439;-75
2023/11/20 14:27:50;;;;;;;;;;;10.80;66.10;;;;;;5077801;28;19971;-76
2023/11/20 14:30:16;;;;;;;;;;;10.80;66.20;;;;;;5078025;28;20400;-71
2023/11/20 14:32:46;;;;;;;;;;;10.80;66.20;;;;;;5078494;28;20036;-72
2023/11/20 14:35:13;;;;;;;;;;;10.70;66.40;;;;;;5079181;28;19927;-72
2023/11/20 14:37:41;;;;;;;;;;;10.70;67.00;;;;;;5078507;28;19951;-73
2023/11/20 14:40:11;;;;;;;;;;;10.70;66.90;;;;;;5078114;28;20094;-75